Carlisle, Minnesota
Current Conditions -  °F | °C
As of 2:34 AM on Saturday 20 Dec 2014 (Local Time) from KFFM Reporting Station
Haze Haze  
Wind Chill: 21°   Ceiling: 600
Heat Index: 30°   Visibility: 5mi
Dew Point: 28°   Wind: 12mph
Humidity: 93%   Direction: 200°SSW
Pressure: 30.07"   Gusts: NA
Location:  46.2829°N, 96.0991°W
Report Text: KFFM 200834Z AUTO 20010KT 5SM BR OVC006 M01/M02 A3007 RMK AO2
Loading
Personal Weather Stations






























Interactive Weather Map New forecast layout! Learn more

10-Day Weather Forecast

Advertisements
Track Severe Weather on mobile